sensor_id;sensor_type;location;lat;lon;timestamp;temperature;humidity
3996;DHT22;2012;49.794;9.722;2022-12-07T00:01:12;3.20;99.90
3996;DHT22;2012;49.794;9.722;2022-12-07T00:03:40;3.20;99.90
3996;DHT22;2012;49.794;9.722;2022-12-07T00:06:10;3.10;99.90
3996;DHT22;2012;49.794;9.722;2022-12-07T00:08:37;3.20;99.90
3996;DHT22;2012;49.794;9.722;2022-12-07T00:11:13;3.20;99.90
3996;DHT22;2012;49.794;9.722;2022-12-07T00:13:41;3.30;99.90
3996;DHT22;2012;49.794;9.722;2022-12-07T00:16:16;3.40;99.90
3996;DHT22;2012;49.794;9.722;2022-12-07T00:18:43;3.40;99.90
3996;DHT22;2012;49.794;9.722;2022-12-07T00:21:19;3.40;99.90
3996;DHT22;2012;49.794;9.722;2022-12-07T00:23:47;3.40;99.90
3996;DHT22;2012;49.794;9.722;2022-12-07T00:26:43;3.50;99.90
3996;DHT22;2012;49.794;9.722;2022-12-07T00:29:19;3.50;99.90
3996;DHT22;2012;49.794;9.722;2022-12-07T00:31:46;3.50;99.90
3996;DHT22;2012;49.794;9.722;2022-12-07T00:34:17;3.50;99.90
3996;DHT22;2012;49.794;9.722;2022-12-07T00:36:44;3.50;99.90
3996;DHT22;2012;49.794;9.722;2022-12-07T00:39:11;3.50;99.90
3996;DHT22;2012;49.794;9.722;2022-12-07T00:41:37;3.50;99.90
3996;DHT22;2012;49.794;9.722;2022-12-07T00:44:04;3.50;99.90
3996;DHT22;2012;49.794;9.722;2022-12-07T00:46:31;3.40;99.90
3996;DHT22;2012;49.794;9.722;2022-12-07T00:48:58;3.40;99.90
3996;DHT22;2012;49.794;9.722;2022-12-07T00:51:25;3.40;99.90
3996;DHT22;2012;49.794;9.722;2022-12-07T00:53:52;3.30;99.90
3996;DHT22;2012;49.794;9.722;2022-12-07T00:56:24;3.30;99.90
3996;DHT22;2012;49.794;9.722;2022-12-07T00:58:56;3.40;99.90
3996;DHT22;2012;49.794;9.722;2022-12-07T01:01:25;3.40;99.90
3996;DHT22;2012;49.794;9.722;2022-12-07T01:03:52;3.50;99.90
3996;DHT22;2012;49.794;9.722;2022-12-07T01:06:21;3.40;99.90
3996;DHT22;2012;49.794;9.722;2022-12-07T01:08:48;3.50;99.90
3996;DHT22;2012;49.794;9.722;2022-12-07T01:11:18;3.50;99.90
3996;DHT22;2012;49.794;9.722;2022-12-07T01:13:45;3.50;99.90
3996;DHT22;2012;49.794;9.722;2022-12-07T01:16:14;3.50;99.90
3996;DHT22;2012;49.794;9.722;2022-12-07T01:18:42;3.60;99.90
3996;DHT22;2012;49.794;9.722;2022-12-07T01:21:15;3.60;99.90
3996;DHT22;2012;49.794;9.722;2022-12-07T01:23:42;3.60;99.90
3996;DHT22;2012;49.794;9.722;2022-12-07T01:26:14;3.60;99.90
3996;DHT22;2012;49.794;9.722;2022-12-07T01:28:41;3.70;99.90
3996;DHT22;2012;49.794;9.722;2022-12-07T01:31:12;3.60;99.90
3996;DHT22;2012;49.794;9.722;2022-12-07T01:33:39;3.60;99.90
3996;DHT22;2012;49.794;9.722;2022-12-07T01:38:40;3.60;99.90
3996;DHT22;2012;49.794;9.722;2022-12-07T01:41:07;3.50;99.90
3996;DHT22;2012;49.794;9.722;2022-12-07T01:43:34;3.50;99.90
3996;DHT22;2012;49.794;9.722;2022-12-07T01:46:02;3.60;99.90
3996;DHT22;2012;49.794;9.722;2022-12-07T01:48:35;3.60;99.90
3996;DHT22;2012;49.794;9.722;2022-12-07T01:51:09;3.60;99.90
3996;DHT22;2012;49.794;9.722;2022-12-07T01:53:40;3.60;99.90
3996;DHT22;2012;49.794;9.722;2022-12-07T01:56:12;3.50;99.90
3996;DHT22;2012;49.794;9.722;2022-12-07T01:58:42;3.40;99.90
3996;DHT22;2012;49.794;9.722;2022-12-07T02:01:09;3.50;99.90
3996;DHT22;2012;49.794;9.722;2022-12-07T02:03:39;3.60;99.90
3996;DHT22;2012;49.794;9.722;2022-12-07T02:06:08;3.60;99.90
3996;DHT22;2012;49.794;9.722;2022-12-07T02:08:37;3.60;99.90
3996;DHT22;2012;49.794;9.722;2022-12-07T02:11:05;3.60;99.90
3996;DHT22;2012;49.794;9.722;2022-12-07T02:13:35;3.60;99.90
3996;DHT22;2012;49.794;9.722;2022-12-07T02:16:18;3.60;99.90
3996;DHT22;2012;49.794;9.722;2022-12-07T02:18:56;3.70;99.90
3996;DHT22;2012;49.794;9.722;2022-12-07T02:27:46;3.60;99.90
3996;DHT22;2012;49.794;9.722;2022-12-07T02:30:19;3.60;99.90
3996;DHT22;2012;49.794;9.722;2022-12-07T02:32:56;3.60;99.90
3996;DHT22;2012;49.794;9.722;2022-12-07T02:41:20;3.70;99.90
3996;DHT22;2012;49.794;9.722;2022-12-07T02:44:01;3.70;99.90
3996;DHT22;2012;49.794;9.722;2022-12-07T02:46:38;3.70;99.90
3996;DHT22;2012;49.794;9.722;2022-12-07T02:49:07;3.70;99.90
3996;DHT22;2012;49.794;9.722;2022-12-07T02:51:39;3.60;99.90
3996;DHT22;2012;49.794;9.722;2022-12-07T02:54:17;3.60;99.90
3996;DHT22;2012;49.794;9.722;2022-12-07T03:13:15;3.60;99.90
3996;DHT22;2012;49.794;9.722;2022-12-07T03:18:52;3.60;99.90
3996;DHT22;2012;49.794;9.722;2022-12-07T03:21:26;3.60;99.90
3996;DHT22;2012;49.794;9.722;2022-12-07T03:23:56;3.60;99.90
3996;DHT22;2012;49.794;9.722;2022-12-07T03:26:34;3.60;99.90
3996;DHT22;2012;49.794;9.722;2022-12-07T03:29:06;3.60;99.90
3996;DHT22;2012;49.794;9.722;2022-12-07T03:31:38;3.60;99.90
3996;DHT22;2012;49.794;9.722;2022-12-07T03:34:13;3.30;99.90
3996;DHT22;2012;49.794;9.722;2022-12-07T03:36:48;3.30;99.90
3996;DHT22;2012;49.794;9.722;2022-12-07T03:41:51;3.50;99.90
3996;DHT22;2012;49.794;9.722;2022-12-07T03:44:18;3.50;99.90
3996;DHT22;2012;49.794;9.722;2022-12-07T03:47:05;3.50;99.90
3996;DHT22;2012;49.794;9.722;2022-12-07T03:49:42;3.40;99.90
3996;DHT22;2012;49.794;9.722;2022-12-07T03:55:04;3.40;99.90
3996;DHT22;2012;49.794;9.722;2022-12-07T03:57:34;3.40;99.90
3996;DHT22;2012;49.794;9.722;2022-12-07T04:00:05;3.40;99.90
3996;DHT22;2012;49.794;9.722;2022-12-07T04:02:33;3.30;99.90
3996;DHT22;2012;49.794;9.722;2022-12-07T04:05:01;3.30;99.90
3996;DHT22;2012;49.794;9.722;2022-12-07T04:07:27;3.30;99.90
3996;DHT22;2012;49.794;9.722;2022-12-07T04:09:54;3.30;99.90
3996;DHT22;2012;49.794;9.722;2022-12-07T04:12:22;3.40;99.90
3996;DHT22;2012;49.794;9.722;2022-12-07T04:14:48;3.40;99.90
3996;DHT22;2012;49.794;9.722;2022-12-07T04:17:15;3.40;99.90
3996;DHT22;2012;49.794;9.722;2022-12-07T04:19:42;3.30;99.90
3996;DHT22;2012;49.794;9.722;2022-12-07T04:22:08;3.40;99.90
3996;DHT22;2012;49.794;9.722;2022-12-07T04:24:35;3.40;99.90
3996;DHT22;2012;49.794;9.722;2022-12-07T04:27:02;3.40;99.90
3996;DHT22;2012;49.794;9.722;2022-12-07T04:29:28;3.40;99.90
3996;DHT22;2012;49.794;9.722;2022-12-07T04:31:55;3.20;99.90
3996;DHT22;2012;49.794;9.722;2022-12-07T04:34:22;3.30;99.90
3996;DHT22;2012;49.794;9.722;2022-12-07T04:36:49;3.20;99.90
3996;DHT22;2012;49.794;9.722;2022-12-07T04:39:22;3.20;99.90
3996;DHT22;2012;49.794;9.722;2022-12-07T04:41:49;3.20;99.90
3996;DHT22;2012;49.794;9.722;2022-12-07T04:44:16;3.20;99.90
3996;DHT22;2012;49.794;9.722;2022-12-07T04:46:43;3.30;99.90
3996;DHT22;2012;49.794;9.722;2022-12-07T04:49:11;3.40;99.90
3996;DHT22;2012;49.794;9.722;2022-12-07T04:51:38;3.30;99.90
3996;DHT22;2012;49.794;9.722;2022-12-07T04:54:05;3.30;99.90
3996;DHT22;2012;49.794;9.722;2022-12-07T04:56:32;3.30;99.90
3996;DHT22;2012;49.794;9.722;2022-12-07T04:59:01;3.30;99.90
3996;DHT22;2012;49.794;9.722;2022-12-07T05:01:28;3.30;99.90
3996;DHT22;2012;49.794;9.722;2022-12-07T05:03:54;3.20;99.90
3996;DHT22;2012;49.794;9.722;2022-12-07T05:06:22;3.40;99.90
3996;DHT22;2012;49.794;9.722;2022-12-07T05:08:48;3.30;99.90
3996;DHT22;2012;49.794;9.722;2022-12-07T05:11:15;3.30;99.90
3996;DHT22;2012;49.794;9.722;2022-12-07T05:14:01;3.40;99.90
3996;DHT22;2012;49.794;9.722;2022-12-07T05:16:29;3.20;99.90
3996;DHT22;2012;49.794;9.722;2022-12-07T05:18:56;3.30;99.90
3996;DHT22;2012;49.794;9.722;2022-12-07T05:21:23;3.20;99.90
3996;DHT22;2012;49.794;9.722;2022-12-07T05:23:50;3.30;99.90
3996;DHT22;2012;49.794;9.722;2022-12-07T05:26:17;3.30;99.90
3996;DHT22;2012;49.794;9.722;2022-12-07T05:28:44;3.30;99.90
3996;DHT22;2012;49.794;9.722;2022-12-07T05:31:10;3.30;99.90
3996;DHT22;2012;49.794;9.722;2022-12-07T05:33:37;3.30;99.90
3996;DHT22;2012;49.794;9.722;2022-12-07T05:36:04;3.20;99.90
3996;DHT22;2012;49.794;9.722;2022-12-07T05:38:32;3.20;99.90
3996;DHT22;2012;49.794;9.722;2022-12-07T05:41:04;3.20;99.90
3996;DHT22;2012;49.794;9.722;2022-12-07T05:43:31;3.20;99.90
3996;DHT22;2012;49.794;9.722;2022-12-07T05:45:58;3.30;99.90
3996;DHT22;2012;49.794;9.722;2022-12-07T05:48:25;3.30;99.90
3996;DHT22;2012;49.794;9.722;2022-12-07T05:50:52;3.30;99.90
3996;DHT22;2012;49.794;9.722;2022-12-07T05:53:19;3.20;99.90
3996;DHT22;2012;49.794;9.722;2022-12-07T05:55:49;3.30;99.90
3996;DHT22;2012;49.794;9.722;2022-12-07T05:58:15;3.20;99.90
3996;DHT22;2012;49.794;9.722;2022-12-07T06:01:00;3.30;99.90
3996;DHT22;2012;49.794;9.722;2022-12-07T06:03:27;3.30;99.90
3996;DHT22;2012;49.794;9.722;2022-12-07T06:05:54;3.40;99.90
3996;DHT22;2012;49.794;9.722;2022-12-07T06:08:21;3.50;99.90
3996;DHT22;2012;49.794;9.722;2022-12-07T06:10:48;3.30;99.90
3996;DHT22;2012;49.794;9.722;2022-12-07T06:13:34;3.90;99.90
3996;DHT22;2012;49.794;9.722;2022-12-07T06:16:01;3.60;99.90
3996;DHT22;2012;49.794;9.722;2022-12-07T06:18:28;3.60;99.90
3996;DHT22;2012;49.794;9.722;2022-12-07T06:20:55;3.50;99.90
3996;DHT22;2012;49.794;9.722;2022-12-07T06:23:21;3.90;99.90
3996;DHT22;2012;49.794;9.722;2022-12-07T06:25:48;3.50;99.90
3996;DHT22;2012;49.794;9.722;2022-12-07T06:28:14;3.70;99.90
3996;DHT22;2012;49.794;9.722;2022-12-07T06:30:41;3.70;99.90
3996;DHT22;2012;49.794;9.722;2022-12-07T06:33:08;3.70;99.90
3996;DHT22;2012;49.794;9.722;2022-12-07T06:35:34;3.50;99.90
3996;DHT22;2012;49.794;9.722;2022-12-07T06:38:01;3.40;99.90
3996;DHT22;2012;49.794;9.722;2022-12-07T06:40:28;3.40;99.90
3996;DHT22;2012;49.794;9.722;2022-12-07T06:42:54;3.40;99.90
3996;DHT22;2012;49.794;9.722;2022-12-07T06:45:21;3.30;99.90
3996;DHT22;2012;49.794;9.722;2022-12-07T06:47:48;3.40;99.90
3996;DHT22;2012;49.794;9.722;2022-12-07T06:50:15;3.40;99.90
3996;DHT22;2012;49.794;9.722;2022-12-07T06:52:41;3.30;99.90
3996;DHT22;2012;49.794;9.722;2022-12-07T06:55:08;3.30;99.90
3996;DHT22;2012;49.794;9.722;2022-12-07T06:57:35;3.40;99.90
3996;DHT22;2012;49.794;9.722;2022-12-07T07:00:03;3.30;99.90
3996;DHT22;2012;49.794;9.722;2022-12-07T07:02:30;3.30;99.90
3996;DHT22;2012;49.794;9.722;2022-12-07T07:04:57;3.30;99.90
3996;DHT22;2012;49.794;9.722;2022-12-07T07:07:23;3.40;99.90
3996;DHT22;2012;49.794;9.722;2022-12-07T07:09:50;3.40;99.90
3996;DHT22;2012;49.794;9.722;2022-12-07T07:12:17;3.40;99.90
3996;DHT22;2012;49.794;9.722;2022-12-07T07:14:43;3.40;99.90
3996;DHT22;2012;49.794;9.722;2022-12-07T07:17:10;3.40;99.90
3996;DHT22;2012;49.794;9.722;2022-12-07T07:19:37;3.40;99.90
3996;DHT22;2012;49.794;9.722;2022-12-07T07:22:04;3.40;99.90
3996;DHT22;2012;49.794;9.722;2022-12-07T07:24:31;3.40;99.90
3996;DHT22;2012;49.794;9.722;2022-12-07T07:26:57;3.40;99.90
3996;DHT22;2012;49.794;9.722;2022-12-07T07:29:24;3.40;99.90
3996;DHT22;2012;49.794;9.722;2022-12-07T07:31:51;3.30;99.90
3996;DHT22;2012;49.794;9.722;2022-12-07T07:34:17;3.30;99.90
3996;DHT22;2012;49.794;9.722;2022-12-07T07:36:44;3.30;99.90
3996;DHT22;2012;49.794;9.722;2022-12-07T07:39:11;3.40;99.90
3996;DHT22;2012;49.794;9.722;2022-12-07T07:41:39;3.40;99.90
3996;DHT22;2012;49.794;9.722;2022-12-07T07:44:05;3.40;99.90
3996;DHT22;2012;49.794;9.722;2022-12-07T07:46:32;4.90;99.90
3996;DHT22;2012;49.794;9.722;2022-12-07T07:48:59;5.60;99.90
3996;DHT22;2012;49.794;9.722;2022-12-07T07:51:38;5.20;99.90
3996;DHT22;2012;49.794;9.722;2022-12-07T07:54:05;5.70;99.90
3996;DHT22;2012;49.794;9.722;2022-12-07T07:56:32;5.40;99.90
3996;DHT22;2012;49.794;9.722;2022-12-07T07:58:58;5.20;99.90
3996;DHT22;2012;49.794;9.722;2022-12-07T08:01:25;4.50;99.90
3996;DHT22;2012;49.794;9.722;2022-12-07T08:03:52;4.10;99.90
3996;DHT22;2012;49.794;9.722;2022-12-07T08:06:18;4.00;99.90
3996;DHT22;2012;49.794;9.722;2022-12-07T08:08:45;3.90;99.90
3996;DHT22;2012;49.794;9.722;2022-12-07T08:11:12;3.80;99.90
3996;DHT22;2012;49.794;9.722;2022-12-07T08:13:39;3.80;99.90
3996;DHT22;2012;49.794;9.722;2022-12-07T08:16:08;3.70;99.90
3996;DHT22;2012;49.794;9.722;2022-12-07T08:18:36;3.70;99.90
3996;DHT22;2012;49.794;9.722;2022-12-07T08:21:03;3.90;99.90
3996;DHT22;2012;49.794;9.722;2022-12-07T08:23:30;3.80;99.90
3996;DHT22;2012;49.794;9.722;2022-12-07T08:26:08;3.80;99.90
3996;DHT22;2012;49.794;9.722;2022-12-07T08:28:35;3.90;99.90
3996;DHT22;2012;49.794;9.722;2022-12-07T08:31:07;3.80;99.90
3996;DHT22;2012;49.794;9.722;2022-12-07T08:33:35;3.80;99.90
3996;DHT22;2012;49.794;9.722;2022-12-07T08:36:04;3.70;99.90
3996;DHT22;2012;49.794;9.722;2022-12-07T08:38:31;3.80;99.90
3996;DHT22;2012;49.794;9.722;2022-12-07T08:40:58;3.80;99.90
3996;DHT22;2012;49.794;9.722;2022-12-07T08:43:25;3.80;99.90
3996;DHT22;2012;49.794;9.722;2022-12-07T08:46:09;3.80;99.90
3996;DHT22;2012;49.794;9.722;2022-12-07T08:48:46;3.70;99.90
3996;DHT22;2012;49.794;9.722;2022-12-07T08:51:13;3.80;99.90
3996;DHT22;2012;49.794;9.722;2022-12-07T08:53:41;3.80;99.90
3996;DHT22;2012;49.794;9.722;2022-12-07T08:56:09;3.80;99.90
3996;DHT22;2012;49.794;9.722;2022-12-07T08:58:36;3.80;99.90
3996;DHT22;2012;49.794;9.722;2022-12-07T09:01:04;3.90;99.90
3996;DHT22;2012;49.794;9.722;2022-12-07T09:03:31;3.90;99.90
3996;DHT22;2012;49.794;9.722;2022-12-07T09:05:59;3.90;99.90
3996;DHT22;2012;49.794;9.722;2022-12-07T09:08:41;3.90;99.90
3996;DHT22;2012;49.794;9.722;2022-12-07T09:11:08;3.90;99.90
3996;DHT22;2012;49.794;9.722;2022-12-07T09:13:35;3.90;99.90
3996;DHT22;2012;49.794;9.722;2022-12-07T09:16:03;3.90;99.90
3996;DHT22;2012;49.794;9.722;2022-12-07T09:18:30;3.90;99.90
3996;DHT22;2012;49.794;9.722;2022-12-07T09:20:56;3.90;99.90
3996;DHT22;2012;49.794;9.722;2022-12-07T09:23:23;4.00;99.90
3996;DHT22;2012;49.794;9.722;2022-12-07T09:25:50;4.00;99.90
3996;DHT22;2012;49.794;9.722;2022-12-07T09:28:17;3.90;99.90
3996;DHT22;2012;49.794;9.722;2022-12-07T09:30:47;3.90;99.90
3996;DHT22;2012;49.794;9.722;2022-12-07T09:33:34;4.00;99.90
3996;DHT22;2012;49.794;9.722;2022-12-07T09:36:02;3.90;99.90
3996;DHT22;2012;49.794;9.722;2022-12-07T09:38:29;4.10;99.90
3996;DHT22;2012;49.794;9.722;2022-12-07T09:40:56;4.20;99.90
3996;DHT22;2012;49.794;9.722;2022-12-07T09:43:25;4.30;99.90
3996;DHT22;2012;49.794;9.722;2022-12-07T09:45:54;4.40;99.90
3996;DHT22;2012;49.794;9.722;2022-12-07T09:48:30;4.40;99.90
3996;DHT22;2012;49.794;9.722;2022-12-07T09:50:59;4.40;99.90
3996;DHT22;2012;49.794;9.722;2022-12-07T09:53:33;4.60;99.90
3996;DHT22;2012;49.794;9.722;2022-12-07T09:56:01;4.70;99.90
3996;DHT22;2012;49.794;9.722;2022-12-07T09:58:30;4.70;99.90
3996;DHT22;2012;49.794;9.722;2022-12-07T10:01:00;4.70;99.90
3996;DHT22;2012;49.794;9.722;2022-12-07T10:03:28;4.70;99.90
3996;DHT22;2012;49.794;9.722;2022-12-07T10:05:56;4.70;99.90
3996;DHT22;2012;49.794;9.722;2022-12-07T10:08:24;4.80;99.90
3996;DHT22;2012;49.794;9.722;2022-12-07T10:10:54;4.80;99.90
3996;DHT22;2012;49.794;9.722;2022-12-07T10:16:00;4.80;99.90
3996;DHT22;2012;49.794;9.722;2022-12-07T10:18:38;4.70;99.90
3996;DHT22;2012;49.794;9.722;2022-12-07T10:23:37;4.70;99.90
3996;DHT22;2012;49.794;9.722;2022-12-07T10:28:48;4.70;99.90
3996;DHT22;2012;49.794;9.722;2022-12-07T10:31:18;4.70;99.90
3996;DHT22;2012;49.794;9.722;2022-12-07T10:33:57;4.70;99.90
3996;DHT22;2012;49.794;9.722;2022-12-07T10:36:33;4.70;99.90
3996;DHT22;2012;49.794;9.722;2022-12-07T10:42:00;4.70;99.90
3996;DHT22;2012;49.794;9.722;2022-12-07T10:44:32;4.70;99.90
3996;DHT22;2012;49.794;9.722;2022-12-07T10:47:25;4.70;99.90
3996;DHT22;2012;49.794;9.722;2022-12-07T10:50:17;4.80;99.90
3996;DHT22;2012;49.794;9.722;2022-12-07T11:04:30;4.90;99.90
3996;DHT22;2012;49.794;9.722;2022-12-07T11:06:55;4.80;99.90
3996;DHT22;2012;49.794;9.722;2022-12-07T11:12:58;4.80;99.90
3996;DHT22;2012;49.794;9.722;2022-12-07T11:18:54;4.80;99.90
3996;DHT22;2012;49.794;9.722;2022-12-07T11:21:28;4.90;99.90
3996;DHT22;2012;49.794;9.722;2022-12-07T11:24:14;4.90;99.90
3996;DHT22;2012;49.794;9.722;2022-12-07T11:27:12;4.90;99.90
3996;DHT22;2012;49.794;9.722;2022-12-07T11:37:43;4.90;99.90
3996;DHT22;2012;49.794;9.722;2022-12-07T11:40:33;4.90;99.90
3996;DHT22;2012;49.794;9.722;2022-12-07T11:43:28;4.80;99.90
3996;DHT22;2012;49.794;9.722;2022-12-07T11:46:07;4.90;99.90
3996;DHT22;2012;49.794;9.722;2022-12-07T11:51:24;4.90;99.90
3996;DHT22;2012;49.794;9.722;2022-12-07T11:54:03;5.00;99.90
3996;DHT22;2012;49.794;9.722;2022-12-07T11:56:34;5.10;99.90
3996;DHT22;2012;49.794;9.722;2022-12-07T11:59:33;5.10;99.90
3996;DHT22;2012;49.794;9.722;2022-12-07T12:02:19;5.10;99.90
3996;DHT22;2012;49.794;9.722;2022-12-07T12:05:16;5.20;99.90
3996;DHT22;2012;49.794;9.722;2022-12-07T12:07:44;5.10;99.90
3996;DHT22;2012;49.794;9.722;2022-12-07T12:11:00;5.00;99.90
3996;DHT22;2012;49.794;9.722;2022-12-07T12:19:58;5.30;99.90
3996;DHT22;2012;49.794;9.722;2022-12-07T12:22:45;5.20;99.90
3996;DHT22;2012;49.794;9.722;2022-12-07T12:25:25;5.40;99.90
3996;DHT22;2012;49.794;9.722;2022-12-07T12:27:56;5.40;99.90
3996;DHT22;2012;49.794;9.722;2022-12-07T12:30:31;5.30;99.90
3996;DHT22;2012;49.794;9.722;2022-12-07T12:33:14;5.40;99.90
3996;DHT22;2012;49.794;9.722;2022-12-07T12:35:41;5.20;99.90
3996;DHT22;2012;49.794;9.722;2022-12-07T12:38:31;5.10;99.90
3996;DHT22;2012;49.794;9.722;2022-12-07T12:41:01;5.10;99.90
3996;DHT22;2012;49.794;9.722;2022-12-07T12:43:46;5.00;99.90
3996;DHT22;2012;49.794;9.722;2022-12-07T12:57:28;5.10;99.90
3996;DHT22;2012;49.794;9.722;2022-12-07T12:59:58;5.00;99.90
3996;DHT22;2012;49.794;9.722;2022-12-07T13:02:38;5.00;99.90
3996;DHT22;2012;49.794;9.722;2022-12-07T13:18:22;5.00;99.90
3996;DHT22;2012;49.794;9.722;2022-12-07T13:26:19;4.90;99.90
3996;DHT22;2012;49.794;9.722;2022-12-07T13:29:10;4.90;99.90
3996;DHT22;2012;49.794;9.722;2022-12-07T13:34:32;4.90;99.90
3996;DHT22;2012;49.794;9.722;2022-12-07T13:37:02;4.90;99.90
3996;DHT22;2012;49.794;9.722;2022-12-07T13:39:34;4.80;99.90
3996;DHT22;2012;49.794;9.722;2022-12-07T13:42:15;4.90;99.90
3996;DHT22;2012;49.794;9.722;2022-12-07T13:44:44;4.90;99.90
3996;DHT22;2012;49.794;9.722;2022-12-07T13:49:56;5.00;99.90
3996;DHT22;2012;49.794;9.722;2022-12-07T13:52:30;5.00;99.90
3996;DHT22;2012;49.794;9.722;2022-12-07T13:57:35;5.00;99.90
3996;DHT22;2012;49.794;9.722;2022-12-07T14:00:04;5.00;99.90
3996;DHT22;2012;49.794;9.722;2022-12-07T14:02:33;5.00;99.90
3996;DHT22;2012;49.794;9.722;2022-12-07T14:05:15;5.00;99.90
3996;DHT22;2012;49.794;9.722;2022-12-07T14:15:58;5.00;99.90
3996;DHT22;2012;49.794;9.722;2022-12-07T14:18:37;5.00;99.90
3996;DHT22;2012;49.794;9.722;2022-12-07T14:21:16;5.00;99.90
3996;DHT22;2012;49.794;9.722;2022-12-07T14:24:12;4.90;99.90
3996;DHT22;2012;49.794;9.722;2022-12-07T14:26:42;5.00;99.90
3996;DHT22;2012;49.794;9.722;2022-12-07T14:29:20;5.00;99.90
3996;DHT22;2012;49.794;9.722;2022-12-07T14:31:46;5.00;99.90
3996;DHT22;2012;49.794;9.722;2022-12-07T14:34:13;5.00;99.90
3996;DHT22;2012;49.794;9.722;2022-12-07T14:36:40;4.90;99.90
3996;DHT22;2012;49.794;9.722;2022-12-07T14:39:07;5.00;99.90
3996;DHT22;2012;49.794;9.722;2022-12-07T14:41:39;5.00;99.90
3996;DHT22;2012;49.794;9.722;2022-12-07T14:44:19;4.90;99.90
3996;DHT22;2012;49.794;9.722;2022-12-07T14:46:50;4.70;99.90
3996;DHT22;2012;49.794;9.722;2022-12-07T14:49:37;4.60;99.90
3996;DHT22;2012;49.794;9.722;2022-12-07T14:52:05;4.70;99.90
3996;DHT22;2012;49.794;9.722;2022-12-07T14:54:52;4.60;99.90
3996;DHT22;2012;49.794;9.722;2022-12-07T14:57:19;4.50;99.90
3996;DHT22;2012;49.794;9.722;2022-12-07T14:59:46;4.50;99.90
3996;DHT22;2012;49.794;9.722;2022-12-07T15:02:14;4.60;99.90
3996;DHT22;2012;49.794;9.722;2022-12-07T15:04:41;4.60;99.90
3996;DHT22;2012;49.794;9.722;2022-12-07T15:07:18;4.60;99.90
3996;DHT22;2012;49.794;9.722;2022-12-07T15:09:47;4.60;99.90
3996;DHT22;2012;49.794;9.722;2022-12-07T15:12:13;4.60;99.90
3996;DHT22;2012;49.794;9.722;2022-12-07T15:14:40;4.60;99.90
3996;DHT22;2012;49.794;9.722;2022-12-07T15:17:10;4.70;99.90
3996;DHT22;2012;49.794;9.722;2022-12-07T15:19:51;4.60;99.90
3996;DHT22;2012;49.794;9.722;2022-12-07T15:22:18;4.60;99.90
3996;DHT22;2012;49.794;9.722;2022-12-07T15:24:44;4.60;99.90
3996;DHT22;2012;49.794;9.722;2022-12-07T15:27:11;4.50;99.90
3996;DHT22;2012;49.794;9.722;2022-12-07T15:29:38;4.50;99.90
3996;DHT22;2012;49.794;9.722;2022-12-07T15:32:05;4.50;99.90
3996;DHT22;2012;49.794;9.722;2022-12-07T15:34:31;4.50;99.90
3996;DHT22;2012;49.794;9.722;2022-12-07T15:37:06;4.60;99.90
3996;DHT22;2012;49.794;9.722;2022-12-07T15:39:33;4.70;99.90
3996;DHT22;2012;49.794;9.722;2022-12-07T15:42:00;4.70;99.90
3996;DHT22;2012;49.794;9.722;2022-12-07T15:44:27;4.60;99.90
3996;DHT22;2012;49.794;9.722;2022-12-07T15:47:12;4.50;99.90
3996;DHT22;2012;49.794;9.722;2022-12-07T15:49:39;4.50;99.90
3996;DHT22;2012;49.794;9.722;2022-12-07T15:52:06;4.50;99.90
3996;DHT22;2012;49.794;9.722;2022-12-07T15:54:32;4.50;99.90
3996;DHT22;2012;49.794;9.722;2022-12-07T15:56:59;4.50;99.90
3996;DHT22;2012;49.794;9.722;2022-12-07T15:59:27;4.30;99.90
3996;DHT22;2012;49.794;9.722;2022-12-07T16:01:54;4.10;99.90
3996;DHT22;2012;49.794;9.722;2022-12-07T16:04:21;4.10;99.90
3996;DHT22;2012;49.794;9.722;2022-12-07T16:06:48;3.90;99.90
3996;DHT22;2012;49.794;9.722;2022-12-07T16:09:18;3.90;99.90
3996;DHT22;2012;49.794;9.722;2022-12-07T16:11:44;3.90;99.90
3996;DHT22;2012;49.794;9.722;2022-12-07T16:14:11;4.00;99.90
3996;DHT22;2012;49.794;9.722;2022-12-07T16:16:38;4.00;99.90
3996;DHT22;2012;49.794;9.722;2022-12-07T16:19:07;3.80;99.90
3996;DHT22;2012;49.794;9.722;2022-12-07T16:21:35;3.80;99.90
3996;DHT22;2012;49.794;9.722;2022-12-07T16:24:02;3.80;99.90
3996;DHT22;2012;49.794;9.722;2022-12-07T16:26:29;3.80;99.90
3996;DHT22;2012;49.794;9.722;2022-12-07T16:28:56;4.00;99.90
3996;DHT22;2012;49.794;9.722;2022-12-07T16:31:26;3.80;99.90
3996;DHT22;2012;49.794;9.722;2022-12-07T16:33:55;3.90;99.90
3996;DHT22;2012;49.794;9.722;2022-12-07T16:36:23;3.80;99.90
3996;DHT22;2012;49.794;9.722;2022-12-07T16:39:11;3.90;99.90
3996;DHT22;2012;49.794;9.722;2022-12-07T16:41:38;3.90;99.90
3996;DHT22;2012;49.794;9.722;2022-12-07T16:44:06;3.80;99.90
3996;DHT22;2012;49.794;9.722;2022-12-07T16:46:35;3.80;99.90
3996;DHT22;2012;49.794;9.722;2022-12-07T16:49:03;3.70;99.90
3996;DHT22;2012;49.794;9.722;2022-12-07T16:51:30;3.70;99.90
3996;DHT22;2012;49.794;9.722;2022-12-07T16:53:57;3.70;99.90
3996;DHT22;2012;49.794;9.722;2022-12-07T16:56:24;3.70;99.90
3996;DHT22;2012;49.794;9.722;2022-12-07T16:58:53;3.80;99.90
3996;DHT22;2012;49.794;9.722;2022-12-07T17:01:21;3.90;99.90
3996;DHT22;2012;49.794;9.722;2022-12-07T17:03:51;4.00;99.90
3996;DHT22;2012;49.794;9.722;2022-12-07T17:06:23;4.10;99.90
3996;DHT22;2012;49.794;9.722;2022-12-07T17:08:51;4.10;99.90
3996;DHT22;2012;49.794;9.722;2022-12-07T17:11:26;4.10;99.90
3996;DHT22;2012;49.794;9.722;2022-12-07T17:13:53;4.00;99.90
3996;DHT22;2012;49.794;9.722;2022-12-07T17:16:39;4.10;99.90
3996;DHT22;2012;49.794;9.722;2022-12-07T17:19:08;4.00;99.90
3996;DHT22;2012;49.794;9.722;2022-12-07T17:21:36;4.00;99.90
3996;DHT22;2012;49.794;9.722;2022-12-07T17:24:05;4.00;99.90
3996;DHT22;2012;49.794;9.722;2022-12-07T17:26:33;4.00;99.90
3996;DHT22;2012;49.794;9.722;2022-12-07T17:29:02;4.00;99.90
3996;DHT22;2012;49.794;9.722;2022-12-07T17:31:29;4.00;99.90
3996;DHT22;2012;49.794;9.722;2022-12-07T17:33:56;4.00;99.90
3996;DHT22;2012;49.794;9.722;2022-12-07T17:36:27;4.00;99.90
3996;DHT22;2012;49.794;9.722;2022-12-07T17:38:55;4.00;99.90
3996;DHT22;2012;49.794;9.722;2022-12-07T17:41:28;4.10;99.90
3996;DHT22;2012;49.794;9.722;2022-12-07T17:44:16;4.10;99.90
3996;DHT22;2012;49.794;9.722;2022-12-07T17:46:44;4.10;99.90
3996;DHT22;2012;49.794;9.722;2022-12-07T17:49:11;4.10;99.90
3996;DHT22;2012;49.794;9.722;2022-12-07T17:51:38;4.10;99.90
3996;DHT22;2012;49.794;9.722;2022-12-07T17:54:23;4.10;99.90
3996;DHT22;2012;49.794;9.722;2022-12-07T17:56:51;4.10;99.90
3996;DHT22;2012;49.794;9.722;2022-12-07T17:59:17;4.00;99.90
3996;DHT22;2012;49.794;9.722;2022-12-07T18:01:44;4.00;99.90
3996;DHT22;2012;49.794;9.722;2022-12-07T18:04:11;4.10;99.90
3996;DHT22;2012;49.794;9.722;2022-12-07T18:06:38;4.20;99.90
3996;DHT22;2012;49.794;9.722;2022-12-07T18:09:06;4.10;99.90
3996;DHT22;2012;49.794;9.722;2022-12-07T18:11:33;4.10;99.90
3996;DHT22;2012;49.794;9.722;2022-12-07T18:14:00;4.10;99.90
3996;DHT22;2012;49.794;9.722;2022-12-07T18:16:28;4.20;99.90
3996;DHT22;2012;49.794;9.722;2022-12-07T18:18:59;4.10;99.90
3996;DHT22;2012;49.794;9.722;2022-12-07T18:21:28;4.20;99.90
3996;DHT22;2012;49.794;9.722;2022-12-07T18:23:58;4.10;99.90
3996;DHT22;2012;49.794;9.722;2022-12-07T18:26:29;4.10;99.90
3996;DHT22;2012;49.794;9.722;2022-12-07T18:29:01;4.10;99.90
3996;DHT22;2012;49.794;9.722;2022-12-07T18:31:28;4.10;99.90
3996;DHT22;2012;49.794;9.722;2022-12-07T18:33:55;4.10;99.90
3996;DHT22;2012;49.794;9.722;2022-12-07T18:36:22;3.80;99.90
3996;DHT22;2012;49.794;9.722;2022-12-07T18:38:50;3.90;99.90
3996;DHT22;2012;49.794;9.722;2022-12-07T18:41:17;4.00;99.90
3996;DHT22;2012;49.794;9.722;2022-12-07T18:43:44;3.90;99.90
3996;DHT22;2012;49.794;9.722;2022-12-07T18:46:11;4.00;99.90
3996;DHT22;2012;49.794;9.722;2022-12-07T18:48:39;3.90;99.90
3996;DHT22;2012;49.794;9.722;2022-12-07T18:51:08;3.70;99.90